sensor_id;sensor_type;location;lat;lon;timestamp;P1;durP1;ratioP1;P2;durP2;ratioP2
20970;SDS011;10644;48.834;10.088;2022-07-30T00:01:43;13.27;;;9.40;;
20970;SDS011;10644;48.834;10.088;2022-07-30T00:06:38;10.33;;;9.27;;
20970;SDS011;10644;48.834;10.088;2022-07-30T00:09:11;11.43;;;9.30;;
20970;SDS011;10644;48.834;10.088;2022-07-30T00:11:39;21.40;;;10.80;;
20970;SDS011;10644;48.834;10.088;2022-07-30T00:14:10;13.00;;;9.07;;
20970;SDS011;10644;48.834;10.088;2022-07-30T00:16:36;15.37;;;9.00;;
20970;SDS011;10644;48.834;10.088;2022-07-30T00:19:03;11.13;;;7.70;;
20970;SDS011;10644;48.834;10.088;2022-07-30T00:21:30;14.43;;;8.77;;
20970;SDS011;10644;48.834;10.088;2022-07-30T00:26:51;16.90;;;10.60;;
20970;SDS011;10644;48.834;10.088;2022-07-30T00:29:17;16.93;;;10.20;;
20970;SDS011;10644;48.834;10.088;2022-07-30T00:31:43;16.87;;;10.90;;
20970;SDS011;10644;48.834;10.088;2022-07-30T00:34:10;18.67;;;10.40;;
20970;SDS011;10644;48.834;10.088;2022-07-30T00:36:38;28.17;;;11.93;;
20970;SDS011;10644;48.834;10.088;2022-07-30T00:39:05;14.60;;;10.63;;
20970;SDS011;10644;48.834;10.088;2022-07-30T00:41:31;23.87;;;10.00;;
20970;SDS011;10644;48.834;10.088;2022-07-30T00:44:04;20.10;;;10.63;;
20970;SDS011;10644;48.834;10.088;2022-07-30T00:49:36;24.20;;;12.00;;
20970;SDS011;10644;48.834;10.088;2022-07-30T00:52:01;15.80;;;10.00;;
20970;SDS011;10644;48.834;10.088;2022-07-30T00:54:33;24.13;;;10.90;;
20970;SDS011;10644;48.834;10.088;2022-07-30T00:57:00;14.60;;;9.73;;
20970;SDS011;10644;48.834;10.088;2022-07-30T00:59:31;16.37;;;10.17;;
20970;SDS011;10644;48.834;10.088;2022-07-30T01:01:59;15.03;;;9.80;;
20970;SDS011;10644;48.834;10.088;2022-07-30T01:04:28;18.40;;;10.63;;
20970;SDS011;10644;48.834;10.088;2022-07-30T01:06:55;25.23;;;10.63;;
20970;SDS011;10644;48.834;10.088;2022-07-30T01:09:24;10.50;;;9.03;;
20970;SDS011;10644;48.834;10.088;2022-07-30T01:11:50;13.53;;;8.60;;
20970;SDS011;10644;48.834;10.088;2022-07-30T01:14:23;18.20;;;8.10;;
20970;SDS011;10644;48.834;10.088;2022-07-30T01:16:49;10.50;;;8.77;;
20970;SDS011;10644;48.834;10.088;2022-07-30T01:31:18;10.10;;;8.40;;
20970;SDS011;10644;48.834;10.088;2022-07-30T01:33:51;12.17;;;7.83;;
20970;SDS011;10644;48.834;10.088;2022-07-30T01:36:20;12.57;;;9.33;;
20970;SDS011;10644;48.834;10.088;2022-07-30T01:38:47;11.93;;;8.70;;
20970;SDS011;10644;48.834;10.088;2022-07-30T01:41:16;16.40;;;8.23;;
20970;SDS011;10644;48.834;10.088;2022-07-30T01:43:50;16.10;;;9.93;;
20970;SDS011;10644;48.834;10.088;2022-07-30T01:46:19;20.27;;;9.63;;
20970;SDS011;10644;48.834;10.088;2022-07-30T01:48:50;16.80;;;10.70;;
20970;SDS011;10644;48.834;10.088;2022-07-30T01:51:16;23.23;;;11.30;;
20970;SDS011;10644;48.834;10.088;2022-07-30T01:53:50;17.93;;;11.07;;
20970;SDS011;10644;48.834;10.088;2022-07-30T01:56:17;25.57;;;11.50;;
20970;SDS011;10644;48.834;10.088;2022-07-30T01:58:46;17.23;;;9.03;;
20970;SDS011;10644;48.834;10.088;2022-07-30T02:01:13;19.60;;;9.47;;
20970;SDS011;10644;48.834;10.088;2022-07-30T02:03:39;29.63;;;10.57;;
20970;SDS011;10644;48.834;10.088;2022-07-30T02:06:12;13.07;;;9.03;;
20970;SDS011;10644;48.834;10.088;2022-07-30T02:08:54;14.10;;;8.90;;
20970;SDS011;10644;48.834;10.088;2022-07-30T02:11:25;13.40;;;8.83;;
20970;SDS011;10644;48.834;10.088;2022-07-30T02:14:25;22.33;;;10.43;;
20970;SDS011;10644;48.834;10.088;2022-07-30T02:16:54;25.50;;;9.73;;
20970;SDS011;10644;48.834;10.088;2022-07-30T02:19:24;28.33;;;10.43;;
20970;SDS011;10644;48.834;10.088;2022-07-30T02:21:55;12.43;;;9.20;;
20970;SDS011;10644;48.834;10.088;2022-07-30T02:24:26;15.40;;;9.53;;
20970;SDS011;10644;48.834;10.088;2022-07-30T02:29:58;15.33;;;9.77;;
20970;SDS011;10644;48.834;10.088;2022-07-30T02:32:28;17.20;;;10.20;;
20970;SDS011;10644;48.834;10.088;2022-07-30T02:35:00;19.80;;;9.83;;
20970;SDS011;10644;48.834;10.088;2022-07-30T02:37:35;11.50;;;9.27;;
20970;SDS011;10644;48.834;10.088;2022-07-30T02:40:02;13.40;;;9.60;;
20970;SDS011;10644;48.834;10.088;2022-07-30T02:42:41;15.97;;;8.63;;
20970;SDS011;10644;48.834;10.088;2022-07-30T02:45:09;16.80;;;9.23;;
20970;SDS011;10644;48.834;10.088;2022-07-30T02:47:36;17.73;;;8.73;;
20970;SDS011;10644;48.834;10.088;2022-07-30T02:50:04;15.30;;;9.20;;
20970;SDS011;10644;48.834;10.088;2022-07-30T02:52:37;14.73;;;9.17;;
20970;SDS011;10644;48.834;10.088;2022-07-30T02:55:07;12.10;;;8.87;;
20970;SDS011;10644;48.834;10.088;2022-07-30T02:57:41;14.30;;;8.90;;
20970;SDS011;10644;48.834;10.088;2022-07-30T03:00:07;14.63;;;8.37;;
20970;SDS011;10644;48.834;10.088;2022-07-30T03:02:34;15.33;;;9.10;;
20970;SDS011;10644;48.834;10.088;2022-07-30T03:05:05;15.20;;;9.20;;
20970;SDS011;10644;48.834;10.088;2022-07-30T03:07:43;14.43;;;9.53;;
20970;SDS011;10644;48.834;10.088;2022-07-30T03:12:56;21.97;;;10.27;;
20970;SDS011;10644;48.834;10.088;2022-07-30T03:15:35;17.87;;;10.07;;
20970;SDS011;10644;48.834;10.088;2022-07-30T03:18:01;18.40;;;10.13;;
20970;SDS011;10644;48.834;10.088;2022-07-30T03:23:39;14.47;;;10.03;;
20970;SDS011;10644;48.834;10.088;2022-07-30T03:26:14;13.20;;;9.90;;
20970;SDS011;10644;48.834;10.088;2022-07-30T03:28:44;18.53;;;10.07;;
20970;SDS011;10644;48.834;10.088;2022-07-30T03:31:19;13.80;;;10.20;;
20970;SDS011;10644;48.834;10.088;2022-07-30T03:33:45;18.20;;;10.10;;
20970;SDS011;10644;48.834;10.088;2022-07-30T03:36:12;17.67;;;10.17;;
20970;SDS011;10644;48.834;10.088;2022-07-30T03:38:42;11.90;;;10.07;;
20970;SDS011;10644;48.834;10.088;2022-07-30T03:41:14;22.23;;;10.87;;
20970;SDS011;10644;48.834;10.088;2022-07-30T03:46:41;21.63;;;10.90;;
20970;SDS011;10644;48.834;10.088;2022-07-30T03:49:07;14.30;;;9.87;;
20970;SDS011;10644;48.834;10.088;2022-07-30T03:51:34;17.33;;;10.70;;
20970;SDS011;10644;48.834;10.088;2022-07-30T03:54:01;15.80;;;10.83;;
20970;SDS011;10644;48.834;10.088;2022-07-30T03:56:36;14.27;;;10.10;;
20970;SDS011;10644;48.834;10.088;2022-07-30T03:59:02;24.73;;;11.10;;
20970;SDS011;10644;48.834;10.088;2022-07-30T04:01:28;24.07;;;10.77;;
20970;SDS011;10644;48.834;10.088;2022-07-30T04:04:05;14.10;;;9.60;;
20970;SDS011;10644;48.834;10.088;2022-07-30T04:06:31;15.60;;;10.67;;
20970;SDS011;10644;48.834;10.088;2022-07-30T04:09:09;32.53;;;12.33;;
20970;SDS011;10644;48.834;10.088;2022-07-30T04:11:36;31.83;;;11.93;;
20970;SDS011;10644;48.834;10.088;2022-07-30T04:16:36;16.20;;;11.30;;
20970;SDS011;10644;48.834;10.088;2022-07-30T04:19:11;14.13;;;11.00;;
20970;SDS011;10644;48.834;10.088;2022-07-30T04:21:43;15.90;;;10.40;;
20970;SDS011;10644;48.834;10.088;2022-07-30T04:24:12;15.63;;;10.37;;
20970;SDS011;10644;48.834;10.088;2022-07-30T04:26:39;15.50;;;11.00;;
20970;SDS011;10644;48.834;10.088;2022-07-30T04:29:06;21.70;;;11.60;;
20970;SDS011;10644;48.834;10.088;2022-07-30T04:31:35;15.50;;;10.70;;
20970;SDS011;10644;48.834;10.088;2022-07-30T04:34:02;17.43;;;10.67;;
20970;SDS011;10644;48.834;10.088;2022-07-30T04:36:43;20.03;;;10.17;;
20970;SDS011;10644;48.834;10.088;2022-07-30T04:39:08;15.50;;;10.20;;
20970;SDS011;10644;48.834;10.088;2022-07-30T04:41:35;15.73;;;10.37;;
20970;SDS011;10644;48.834;10.088;2022-07-30T04:44:01;32.23;;;12.50;;
20970;SDS011;10644;48.834;10.088;2022-07-30T04:46:34;22.37;;;10.70;;
20970;SDS011;10644;48.834;10.088;2022-07-30T04:49:05;22.33;;;10.77;;
20970;SDS011;10644;48.834;10.088;2022-07-30T04:51:34;12.20;;;10.60;;
20970;SDS011;10644;48.834;10.088;2022-07-30T04:54:08;21.03;;;11.07;;
20970;SDS011;10644;48.834;10.088;2022-07-30T04:56:42;18.10;;;11.13;;
20970;SDS011;10644;48.834;10.088;2022-07-30T04:59:17;17.80;;;11.23;;
20970;SDS011;10644;48.834;10.088;2022-07-30T05:01:47;14.50;;;10.60;;
20970;SDS011;10644;48.834;10.088;2022-07-30T05:04:16;15.63;;;11.00;;
20970;SDS011;10644;48.834;10.088;2022-07-30T05:09:15;17.90;;;11.13;;
20970;SDS011;10644;48.834;10.088;2022-07-30T05:11:41;15.83;;;11.50;;
20970;SDS011;10644;48.834;10.088;2022-07-30T05:14:10;23.83;;;11.77;;
20970;SDS011;10644;48.834;10.088;2022-07-30T05:16:48;16.90;;;10.80;;
20970;SDS011;10644;48.834;10.088;2022-07-30T05:19:15;18.00;;;10.70;;
20970;SDS011;10644;48.834;10.088;2022-07-30T05:21:58;20.70;;;10.90;;
20970;SDS011;10644;48.834;10.088;2022-07-30T05:26:57;13.50;;;10.70;;
20970;SDS011;10644;48.834;10.088;2022-07-30T05:29:31;21.53;;;11.70;;
20970;SDS011;10644;48.834;10.088;2022-07-30T05:31:56;16.50;;;10.80;;
20970;SDS011;10644;48.834;10.088;2022-07-30T05:37:11;41.10;;;14.20;;
20970;SDS011;10644;48.834;10.088;2022-07-30T05:39:45;46.97;;;13.70;;
20970;SDS011;10644;48.834;10.088;2022-07-30T05:42:12;29.73;;;12.23;;
20970;SDS011;10644;48.834;10.088;2022-07-30T05:44:40;19.50;;;12.00;;
20970;SDS011;10644;48.834;10.088;2022-07-30T05:47:12;15.97;;;10.47;;
20970;SDS011;10644;48.834;10.088;2022-07-30T05:49:37;26.97;;;12.07;;
20970;SDS011;10644;48.834;10.088;2022-07-30T05:52:02;12.80;;;9.60;;
20970;SDS011;10644;48.834;10.088;2022-07-30T05:54:28;23.40;;;10.60;;
20970;SDS011;10644;48.834;10.088;2022-07-30T05:56:56;17.60;;;10.83;;
20970;SDS011;10644;48.834;10.088;2022-07-30T05:59:22;14.97;;;10.20;;
20970;SDS011;10644;48.834;10.088;2022-07-30T06:01:47;25.80;;;10.50;;
20970;SDS011;10644;48.834;10.088;2022-07-30T06:04:14;18.23;;;10.10;;
20970;SDS011;10644;48.834;10.088;2022-07-30T06:06:40;20.97;;;10.03;;
20970;SDS011;10644;48.834;10.088;2022-07-30T06:09:06;17.27;;;9.00;;
20970;SDS011;10644;48.834;10.088;2022-07-30T06:11:32;13.03;;;9.40;;
20970;SDS011;10644;48.834;10.088;2022-07-30T06:13:57;15.63;;;9.97;;
20970;SDS011;10644;48.834;10.088;2022-07-30T06:16:30;16.13;;;9.23;;
20970;SDS011;10644;48.834;10.088;2022-07-30T06:19:02;19.30;;;10.80;;
20970;SDS011;10644;48.834;10.088;2022-07-30T06:21:30;15.20;;;9.00;;
20970;SDS011;10644;48.834;10.088;2022-07-30T06:23:55;18.87;;;11.40;;
20970;SDS011;10644;48.834;10.088;2022-07-30T06:26:23;14.77;;;10.80;;
20970;SDS011;10644;48.834;10.088;2022-07-30T06:28:49;14.50;;;9.93;;
20970;SDS011;10644;48.834;10.088;2022-07-30T06:33:53;19.13;;;10.40;;
20970;SDS011;10644;48.834;10.088;2022-07-30T06:36:18;16.53;;;9.50;;
20970;SDS011;10644;48.834;10.088;2022-07-30T06:38:44;18.60;;;10.17;;
20970;SDS011;10644;48.834;10.088;2022-07-30T06:41:09;12.47;;;9.20;;
20970;SDS011;10644;48.834;10.088;2022-07-30T06:43:45;21.00;;;10.37;;
20970;SDS011;10644;48.834;10.088;2022-07-30T06:46:18;17.03;;;10.63;;
20970;SDS011;10644;48.834;10.088;2022-07-30T06:48:43;21.27;;;10.57;;
20970;SDS011;10644;48.834;10.088;2022-07-30T06:51:09;19.30;;;9.90;;
20970;SDS011;10644;48.834;10.088;2022-07-30T06:53:35;17.60;;;11.00;;
20970;SDS011;10644;48.834;10.088;2022-07-30T06:56:01;15.90;;;10.20;;
20970;SDS011;10644;48.834;10.088;2022-07-30T06:58:26;21.73;;;10.50;;
20970;SDS011;10644;48.834;10.088;2022-07-30T07:01:03;26.00;;;9.63;;
20970;SDS011;10644;48.834;10.088;2022-07-30T07:03:28;17.00;;;9.67;;
20970;SDS011;10644;48.834;10.088;2022-07-30T07:06:00;17.93;;;10.83;;
20970;SDS011;10644;48.834;10.088;2022-07-30T07:08:25;20.33;;;10.77;;
20970;SDS011;10644;48.834;10.088;2022-07-30T07:11:06;15.97;;;10.10;;
20970;SDS011;10644;48.834;10.088;2022-07-30T07:13:31;28.17;;;11.10;;
20970;SDS011;10644;48.834;10.088;2022-07-30T07:18:26;22.90;;;11.03;;
20970;SDS011;10644;48.834;10.088;2022-07-30T07:20:52;14.23;;;9.73;;
20970;SDS011;10644;48.834;10.088;2022-07-30T07:23:17;17.37;;;9.53;;
20970;SDS011;10644;48.834;10.088;2022-07-30T07:25:43;14.60;;;9.70;;
20970;SDS011;10644;48.834;10.088;2022-07-30T07:28:08;19.03;;;11.07;;
20970;SDS011;10644;48.834;10.088;2022-07-30T07:30:34;12.60;;;9.53;;
20970;SDS011;10644;48.834;10.088;2022-07-30T07:33:03;16.53;;;9.80;;
20970;SDS011;10644;48.834;10.088;2022-07-30T07:35:40;14.20;;;9.67;;
20970;SDS011;10644;48.834;10.088;2022-07-30T07:38:06;28.63;;;11.63;;
20970;SDS011;10644;48.834;10.088;2022-07-30T07:40:38;16.47;;;8.80;;
20970;SDS011;10644;48.834;10.088;2022-07-30T07:43:03;22.60;;;9.10;;
20970;SDS011;10644;48.834;10.088;2022-07-30T07:45:32;18.83;;;10.03;;
20970;SDS011;10644;48.834;10.088;2022-07-30T07:47:58;15.97;;;9.67;;
20970;SDS011;10644;48.834;10.088;2022-07-30T07:50:23;16.57;;;9.80;;
20970;SDS011;10644;48.834;10.088;2022-07-30T07:52:51;18.13;;;9.60;;
20970;SDS011;10644;48.834;10.088;2022-07-30T07:55:16;15.70;;;9.97;;
20970;SDS011;10644;48.834;10.088;2022-07-30T07:57:43;16.17;;;9.30;;
20970;SDS011;10644;48.834;10.088;2022-07-30T08:00:11;21.10;;;9.00;;
20970;SDS011;10644;48.834;10.088;2022-07-30T08:02:47;16.17;;;8.30;;
20970;SDS011;10644;48.834;10.088;2022-07-30T08:05:13;21.93;;;9.80;;
20970;SDS011;10644;48.834;10.088;2022-07-30T08:07:39;15.57;;;9.60;;
20970;SDS011;10644;48.834;10.088;2022-07-30T08:10:09;16.23;;;10.13;;
20970;SDS011;10644;48.834;10.088;2022-07-30T08:12:37;17.97;;;8.47;;
20970;SDS011;10644;48.834;10.088;2022-07-30T08:15:03;17.90;;;9.30;;
20970;SDS011;10644;48.834;10.088;2022-07-30T08:17:30;16.80;;;8.53;;
20970;SDS011;10644;48.834;10.088;2022-07-30T08:19:59;36.37;;;10.33;;
20970;SDS011;10644;48.834;10.088;2022-07-30T08:22:25;12.70;;;8.43;;
20970;SDS011;10644;48.834;10.088;2022-07-30T08:24:51;22.20;;;9.37;;
20970;SDS011;10644;48.834;10.088;2022-07-30T08:27:24;19.30;;;8.37;;
20970;SDS011;10644;48.834;10.088;2022-07-30T08:29:50;16.33;;;8.50;;
20970;SDS011;10644;48.834;10.088;2022-07-30T08:32:16;25.60;;;9.20;;
20970;SDS011;10644;48.834;10.088;2022-07-30T08:34:44;19.20;;;8.30;;
20970;SDS011;10644;48.834;10.088;2022-07-30T08:37:09;14.30;;;7.73;;
20970;SDS011;10644;48.834;10.088;2022-07-30T08:39:34;20.90;;;7.27;;
20970;SDS011;10644;48.834;10.088;2022-07-30T08:42:02;9.97;;;6.30;;
20970;SDS011;10644;48.834;10.088;2022-07-30T08:44:30;15.50;;;6.47;;
20970;SDS011;10644;48.834;10.088;2022-07-30T08:46:58;13.53;;;6.20;;
20970;SDS011;10644;48.834;10.088;2022-07-30T08:49:28;11.63;;;6.40;;
20970;SDS011;10644;48.834;10.088;2022-07-30T08:51:56;6.97;;;6.00;;
20970;SDS011;10644;48.834;10.088;2022-07-30T08:54:22;12.07;;;6.03;;
20970;SDS011;10644;48.834;10.088;2022-07-30T08:56:48;16.20;;;6.20;;
20970;SDS011;10644;48.834;10.088;2022-07-30T08:59:16;14.87;;;5.83;;
20970;SDS011;10644;48.834;10.088;2022-07-30T09:01:44;12.97;;;5.40;;
20970;SDS011;10644;48.834;10.088;2022-07-30T09:04:10;15.97;;;5.83;;
20970;SDS011;10644;48.834;10.088;2022-07-30T09:06:35;10.93;;;5.40;;
20970;SDS011;10644;48.834;10.088;2022-07-30T09:09:03;19.23;;;6.73;;
20970;SDS011;10644;48.834;10.088;2022-07-30T09:11:36;9.00;;;5.20;;
20970;SDS011;10644;48.834;10.088;2022-07-30T09:14:11;9.00;;;5.23;;
20970;SDS011;10644;48.834;10.088;2022-07-30T09:16:38;11.37;;;5.80;;
20970;SDS011;10644;48.834;10.088;2022-07-30T09:19:17;16.77;;;5.93;;
20970;SDS011;10644;48.834;10.088;2022-07-30T09:21:56;10.30;;;5.27;;
20970;SDS011;10644;48.834;10.088;2022-07-30T09:24:26;7.50;;;4.90;;
20970;SDS011;10644;48.834;10.088;2022-07-30T09:32:12;18.20;;;5.40;;
20970;SDS011;10644;48.834;10.088;2022-07-30T09:34:43;7.20;;;3.83;;
20970;SDS011;10644;48.834;10.088;2022-07-30T09:39:36;7.80;;;3.80;;
20970;SDS011;10644;48.834;10.088;2022-07-30T09:42:04;11.57;;;5.20;;
20970;SDS011;10644;48.834;10.088;2022-07-30T09:44:41;6.50;;;3.63;;
20970;SDS011;10644;48.834;10.088;2022-07-30T09:47:08;12.90;;;4.60;;
20970;SDS011;10644;48.834;10.088;2022-07-30T09:49:33;7.20;;;4.03;;
20970;SDS011;10644;48.834;10.088;2022-07-30T09:51:59;9.97;;;4.07;;
20970;SDS011;10644;48.834;10.088;2022-07-30T09:54:26;6.83;;;4.20;;
20970;SDS011;10644;48.834;10.088;2022-07-30T09:57:11;26.60;;;6.47;;
20970;SDS011;10644;48.834;10.088;2022-07-30T09:59:42;11.03;;;4.60;;
20970;SDS011;10644;48.834;10.088;2022-07-30T10:02:07;10.23;;;4.90;;
20970;SDS011;10644;48.834;10.088;2022-07-30T10:04:39;9.60;;;3.80;;
20970;SDS011;10644;48.834;10.088;2022-07-30T10:07:15;5.83;;;4.30;;
20970;SDS011;10644;48.834;10.088;2022-07-30T10:09:42;8.77;;;4.10;;
20970;SDS011;10644;48.834;10.088;2022-07-30T10:12:09;8.60;;;4.37;;
20970;SDS011;10644;48.834;10.088;2022-07-30T10:14:37;7.37;;;4.40;;
20970;SDS011;10644;48.834;10.088;2022-07-30T10:17:07;6.97;;;4.47;;
20970;SDS011;10644;48.834;10.088;2022-07-30T10:19:33;8.53;;;4.57;;
20970;SDS011;10644;48.834;10.088;2022-07-30T10:22:02;9.80;;;4.63;;
20970;SDS011;10644;48.834;10.088;2022-07-30T10:26:59;10.10;;;4.83;;
20970;SDS011;10644;48.834;10.088;2022-07-30T10:29:30;6.43;;;4.10;;
20970;SDS011;10644;48.834;10.088;2022-07-30T10:31:56;7.07;;;4.57;;
20970;SDS011;10644;48.834;10.088;2022-07-30T10:34:21;6.47;;;4.43;;
20970;SDS011;10644;48.834;10.088;2022-07-30T10:36:51;7.67;;;4.87;;
20970;SDS011;10644;48.834;10.088;2022-07-30T10:39:36;16.33;;;5.60;;
20970;SDS011;10644;48.834;10.088;2022-07-30T10:47:27;9.37;;;4.73;;
20970;SDS011;10644;48.834;10.088;2022-07-30T10:55:11;11.23;;;4.87;;
20970;SDS011;10644;48.834;10.088;2022-07-30T10:58:00;9.47;;;4.20;;
20970;SDS011;10644;48.834;10.088;2022-07-30T11:00:56;6.17;;;3.87;;
20970;SDS011;10644;48.834;10.088;2022-07-30T11:03:39;7.00;;;4.20;;
20970;SDS011;10644;48.834;10.088;2022-07-30T11:08:41;16.20;;;5.70;;
20970;SDS011;10644;48.834;10.088;2022-07-30T11:13:50;4.93;;;3.97;;
20970;SDS011;10644;48.834;10.088;2022-07-30T11:16:24;11.87;;;5.07;;
20970;SDS011;10644;48.834;10.088;2022-07-30T11:19:10;10.63;;;5.43;;
20970;SDS011;10644;48.834;10.088;2022-07-30T11:21:40;5.03;;;4.40;;
20970;SDS011;10644;48.834;10.088;2022-07-30T11:27:57;28.23;;;7.50;;
20970;SDS011;10644;48.834;10.088;2022-07-30T11:30:52;12.03;;;4.70;;
20970;SDS011;10644;48.834;10.088;2022-07-30T11:33:22;5.40;;;3.50;;
20970;SDS011;10644;48.834;10.088;2022-07-30T11:36:05;7.50;;;4.13;;
20970;SDS011;10644;48.834;10.088;2022-07-30T11:41:21;12.57;;;4.40;;
20970;SDS011;10644;48.834;10.088;2022-07-30T11:43:47;13.23;;;3.83;;
20970;SDS011;10644;48.834;10.088;2022-07-30T11:46:14;7.23;;;3.50;;
20970;SDS011;10644;48.834;10.088;2022-07-30T11:49:00;4.77;;;3.60;;
20970;SDS011;10644;48.834;10.088;2022-07-30T11:54:48;9.13;;;4.10;;
20970;SDS011;10644;48.834;10.088;2022-07-30T11:57:20;16.87;;;5.27;;
20970;SDS011;10644;48.834;10.088;2022-07-30T11:59:56;8.90;;;4.40;;
20970;SDS011;10644;48.834;10.088;2022-07-30T12:02:27;16.53;;;5.33;;
20970;SDS011;10644;48.834;10.088;2022-07-30T12:04:56;9.40;;;4.67;;
20970;SDS011;10644;48.834;10.088;2022-07-30T12:10:14;7.17;;;4.30;;
20970;SDS011;10644;48.834;10.088;2022-07-30T12:12:44;7.03;;;4.03;;
20970;SDS011;10644;48.834;10.088;2022-07-30T12:15:11;10.93;;;4.17;;
20970;SDS011;10644;48.834;10.088;2022-07-30T12:17:57;10.40;;;4.00;;
20970;SDS011;10644;48.834;10.088;2022-07-30T12:20:25;7.90;;;4.20;;
20970;SDS011;10644;48.834;10.088;2022-07-30T12:22:51;5.80;;;3.80;;
20970;SDS011;10644;48.834;10.088;2022-07-30T12:25:17;12.17;;;4.60;;
20970;SDS011;10644;48.834;10.088;2022-07-30T12:27:46;13.17;;;4.27;;
20970;SDS011;10644;48.834;10.088;2022-07-30T12:30:15;11.60;;;4.43;;
20970;SDS011;10644;48.834;10.088;2022-07-30T12:32:42;12.17;;;4.60;;
20970;SDS011;10644;48.834;10.088;2022-07-30T12:35:09;8.33;;;3.90;;
20970;SDS011;10644;48.834;10.088;2022-07-30T12:37:37;9.90;;;4.23;;
20970;SDS011;10644;48.834;10.088;2022-07-30T12:40:13;10.63;;;4.23;;
20970;SDS011;10644;48.834;10.088;2022-07-30T12:42:49;7.63;;;4.13;;
20970;SDS011;10644;48.834;10.088;2022-07-30T12:45:28;9.53;;;4.00;;
20970;SDS011;10644;48.834;10.088;2022-07-30T12:47:58;15.83;;;4.93;;
20970;SDS011;10644;48.834;10.088;2022-07-30T12:50:24;19.17;;;5.27;;
20970;SDS011;10644;48.834;10.088;2022-07-30T12:52:51;9.93;;;4.13;;
20970;SDS011;10644;48.834;10.088;2022-07-30T12:55:18;8.63;;;3.80;;
20970;SDS011;10644;48.834;10.088;2022-07-30T13:00:22;10.37;;;4.67;;
20970;SDS011;10644;48.834;10.088;2022-07-30T13:02:49;6.43;;;4.00;;
20970;SDS011;10644;48.834;10.088;2022-07-30T13:05:16;3.93;;;3.33;;
20970;SDS011;10644;48.834;10.088;2022-07-30T13:07:54;4.00;;;3.80;;
20970;SDS011;10644;48.834;10.088;2022-07-30T13:10:22;6.80;;;3.60;;
20970;SDS011;10644;48.834;10.088;2022-07-30T13:12:50;9.73;;;4.23;;
20970;SDS011;10644;48.834;10.088;2022-07-30T13:15:18;7.50;;;3.70;;
20970;SDS011;10644;48.834;10.088;2022-07-30T13:17:45;11.07;;;4.00;;
20970;SDS011;10644;48.834;10.088;2022-07-30T13:20:12;11.50;;;4.67;;
20970;SDS011;10644;48.834;10.088;2022-07-30T13:22:41;14.57;;;4.63;;
20970;SDS011;10644;48.834;10.088;2022-07-30T13:25:07;7.70;;;4.13;;
20970;SDS011;10644;48.834;10.088;2022-07-30T13:27:34;7.63;;;4.00;;
20970;SDS011;10644;48.834;10.088;2022-07-30T13:30:00;10.70;;;4.80;;
20970;SDS011;10644;48.834;10.088;2022-07-30T13:32:30;22.63;;;6.03;;
20970;SDS011;10644;48.834;10.088;2022-07-30T13:34:57;7.40;;;4.17;;
20970;SDS011;10644;48.834;10.088;2022-07-30T13:37:22;12.30;;;4.67;;
20970;SDS011;10644;48.834;10.088;2022-07-30T13:39:47;11.30;;;3.93;;
20970;SDS011;10644;48.834;10.088;2022-07-30T13:42:13;14.73;;;5.17;;
20970;SDS011;10644;48.834;10.088;2022-07-30T13:44:38;16.47;;;4.53;;
20970;SDS011;10644;48.834;10.088;2022-07-30T13:47:04;10.40;;;4.30;;
20970;SDS011;10644;48.834;10.088;2022-07-30T13:49:33;11.17;;;4.20;;
20970;SDS011;10644;48.834;10.088;2022-07-30T13:52:08;11.00;;;4.10;;
20970;SDS011;10644;48.834;10.088;2022-07-30T13:54:35;6.60;;;3.77;;
20970;SDS011;10644;48.834;10.088;2022-07-30T13:57:00;11.73;;;4.60;;
20970;SDS011;10644;48.834;10.088;2022-07-30T13:59:26;9.07;;;3.77;;
20970;SDS011;10644;48.834;10.088;2022-07-30T14:01:54;9.53;;;3.50;;
20970;SDS011;10644;48.834;10.088;2022-07-30T14:04:20;5.30;;;3.10;;
20970;SDS011;10644;48.834;10.088;2022-07-30T14:06:46;11.97;;;4.70;;
20970;SDS011;10644;48.834;10.088;2022-07-30T14:09:11;9.10;;;3.67;;
20970;SDS011;10644;48.834;10.088;2022-07-30T14:11:37;9.50;;;3.80;;
20970;SDS011;10644;48.834;10.088;2022-07-30T14:14:03;5.93;;;3.00;;
20970;SDS011;10644;48.834;10.088;2022-07-30T14:16:28;6.13;;;3.47;;
20970;SDS011;10644;48.834;10.088;2022-07-30T14:19:00;5.97;;;3.27;;
20970;SDS011;10644;48.834;10.088;2022-07-30T14:21:25;9.00;;;4.00;;
20970;SDS011;10644;48.834;10.088;2022-07-30T14:23:51;4.13;;;2.87;;
20970;SDS011;10644;48.834;10.088;2022-07-30T14:26:16;15.67;;;3.97;;
20970;SDS011;10644;48.834;10.088;2022-07-30T14:28:42;5.10;;;3.03;;
20970;SDS011;10644;48.834;10.088;2022-07-30T14:31:08;7.70;;;2.93;;
20970;SDS011;10644;48.834;10.088;2022-07-30T14:33:34;10.27;;;4.27;;
20970;SDS011;10644;48.834;10.088;2022-07-30T14:36:01;8.63;;;3.90;;
20970;SDS011;10644;48.834;10.088;2022-07-30T14:38:28;12.17;;;4.00;;
20970;SDS011;10644;48.834;10.088;2022-07-30T14:40:53;13.87;;;3.53;;
20970;SDS011;10644;48.834;10.088;2022-07-30T14:43:18;6.93;;;3.60;;
20970;SDS011;10644;48.834;10.088;2022-07-30T14:45:45;12.37;;;4.00;;
20970;SDS011;10644;48.834;10.088;2022-07-30T14:48:14;21.93;;;4.90;;
20970;SDS011;10644;48.834;10.088;2022-07-30T14:50:43;16.70;;;4.50;;
20970;SDS011;10644;48.834;10.088;2022-07-30T14:53:09;9.40;;;3.90;;
20970;SDS011;10644;48.834;10.088;2022-07-30T14:55:34;5.17;;;3.33;;
20970;SDS011;10644;48.834;10.088;2022-07-30T14:57:59;9.30;;;3.30;;
20970;SDS011;10644;48.834;10.088;2022-07-30T15:00:26;20.10;;;4.23;;
20970;SDS011;10644;48.834;10.088;2022-07-30T15:02:51;11.53;;;4.13;;
20970;SDS011;10644;48.834;10.088;2022-07-30T15:05:17;6.33;;;3.23;;
20970;SDS011;10644;48.834;10.088;2022-07-30T15:07:47;12.57;;;4.50;;
20970;SDS011;10644;48.834;10.088;2022-07-30T15:10:13;5.83;;;3.43;;
20970;SDS011;10644;48.834;10.088;2022-07-30T15:12:39;7.37;;;3.90;;
20970;SDS011;10644;48.834;10.088;2022-07-30T15:15:05;5.60;;;3.53;;
20970;SDS011;10644;48.834;10.088;2022-07-30T15:17:32;8.33;;;3.93;;
20970;SDS011;10644;48.834;10.088;2022-07-30T15:19:58;23.43;;;5.50;;
20970;SDS011;10644;48.834;10.088;2022-07-30T15:22:25;5.37;;;3.50;;
20970;SDS011;10644;48.834;10.088;2022-07-30T15:24:52;13.33;;;4.50;;
20970;SDS011;10644;48.834;10.088;2022-07-30T15:27:19;14.10;;;4.07;;
20970;SDS011;10644;48.834;10.088;2022-07-30T15:29:44;13.20;;;4.80;;
20970;SDS011;10644;48.834;10.088;2022-07-30T15:32:14;5.97;;;3.27;;
20970;SDS011;10644;48.834;10.088;2022-07-30T15:34:40;12.23;;;4.00;;
20970;SDS011;10644;48.834;10.088;2022-07-30T15:37:09;9.43;;;3.77;;
20970;SDS011;10644;48.834;10.088;2022-07-30T15:39:34;10.30;;;4.80;;
20970;SDS011;10644;48.834;10.088;2022-07-30T15:42:00;7.13;;;3.60;;
20970;SDS011;10644;48.834;10.088;2022-07-30T15:44:26;5.27;;;3.30;;
20970;SDS011;10644;48.834;10.088;2022-07-30T15:46:52;11.83;;;3.90;;
20970;SDS011;10644;48.834;10.088;2022-07-30T15:49:17;6.43;;;3.60;;
20970;SDS011;10644;48.834;10.088;2022-07-30T15:51:44;6.97;;;3.70;;
20970;SDS011;10644;48.834;10.088;2022-07-30T15:54:16;7.10;;;3.87;;
20970;SDS011;10644;48.834;10.088;2022-07-30T15:56:43;10.13;;;4.40;;
20970;SDS011;10644;48.834;10.088;2022-07-30T15:59:10;10.53;;;3.60;;
20970;SDS011;10644;48.834;10.088;2022-07-30T16:01:36;6.60;;;4.10;;